createdAt,value
2019-05-21T00:00:32.506Z,84.50
2019-05-21T00:01:32.499Z,83.40
2019-05-21T00:02:32.511Z,87.60
2019-05-21T00:03:32.475Z,89.70
2019-05-21T00:04:32.463Z,81.30
2019-05-21T00:05:32.456Z,84.40
2019-05-21T00:06:32.445Z,83.70
2019-05-21T00:07:32.463Z,89.40
2019-05-21T00:08:32.428Z,86.20
2019-05-21T00:09:32.412Z,80.20
2019-05-21T00:10:32.398Z,89.50
2019-05-21T00:11:32.392Z,88.40
2019-05-21T00:12:32.413Z,85.60
2019-05-21T00:13:32.371Z,93.60
2019-05-21T00:14:32.363Z,90.00
2019-05-21T00:15:32.342Z,85.60
2019-05-21T00:16:32.338Z,94.50
2019-05-21T00:17:32.351Z,87.10
2019-05-21T00:18:32.313Z,83.00
2019-05-21T00:19:32.309Z,90.80
2019-05-21T00:20:32.289Z,98.20
2019-05-21T00:21:32.283Z,88.60
2019-05-21T00:22:32.301Z,96.20
2019-05-21T00:23:32.260Z,93.00
2019-05-21T00:24:32.250Z,95.00
2019-05-21T00:25:32.240Z,98.40
2019-05-21T00:26:32.227Z,92.00
2019-05-21T00:27:32.242Z,89.60
2019-05-21T00:28:32.205Z,94.40
2019-05-21T00:29:32.201Z,91.20
2019-05-21T00:30:32.183Z,90.50
2019-05-21T00:31:32.174Z,92.90
2019-05-21T00:32:32.195Z,92.70
2019-05-21T00:33:32.155Z,93.00
2019-05-21T00:34:43.571Z,91.30
2019-05-21T00:35:33.130Z,90.90
2019-05-21T00:36:32.122Z,87.50
2019-05-21T00:37:32.132Z,96.50
2019-05-21T00:38:32.095Z,87.10
2019-05-21T00:39:32.091Z,89.00
2019-05-21T00:40:32.076Z,90.60
2019-05-21T00:41:32.063Z,86.90
2019-05-21T00:42:32.083Z,83.70
2019-05-21T00:43:32.044Z,90.80
2019-05-21T00:44:32.036Z,91.80
2019-05-21T00:45:32.019Z,86.30
2019-05-21T00:46:32.007Z,80.50
2019-05-21T00:47:32.047Z,94.00
2019-05-21T00:48:31.989Z,84.60
2019-05-21T00:49:31.978Z,86.00
2019-05-21T00:50:31.969Z,86.40
2019-05-21T00:51:31.955Z,87.60
2019-05-21T00:52:31.973Z,85.30
2019-05-21T00:53:31.938Z,84.20
2019-05-21T00:54:31.924Z,84.20
2019-05-21T00:55:31.914Z,76.10
2019-05-21T00:56:31.900Z,83.80
2019-05-21T00:57:31.914Z,83.20
2019-05-21T00:58:31.880Z,74.70
2019-05-21T00:59:31.868Z,83.00
2019-05-21T01:00:31.856Z,77.80
2019-05-21T01:01:31.845Z,83.10
2019-05-21T01:02:31.865Z,80.60
2019-05-21T01:03:31.818Z,76.40
2019-05-21T01:04:31.824Z,83.40
2019-05-21T01:05:31.799Z,83.00
2019-05-21T01:06:31.804Z,79.20
2019-05-21T01:07:31.805Z,81.10
2019-05-21T01:08:31.767Z,83.50
2019-05-21T01:09:31.754Z,79.80
2019-05-21T01:10:31.744Z,80.40
2019-05-21T01:11:31.760Z,87.20
2019-05-21T01:12:31.747Z,78.30
2019-05-21T01:13:31.721Z,80.20
2019-05-21T01:14:31.703Z,78.20
2019-05-21T01:15:31.690Z,73.50
2019-05-21T01:16:31.721Z,75.20
2019-05-21T01:17:31.694Z,78.00
2019-05-21T01:18:31.661Z,80.60
2019-05-21T01:19:31.649Z,76.90
2019-05-21T01:20:31.636Z,76.90
2019-05-21T01:21:31.624Z,77.20
2019-05-21T01:22:31.641Z,74.10
2019-05-21T01:23:31.601Z,75.70
2019-05-21T01:24:31.593Z,78.30
2019-05-21T01:25:31.588Z,81.90
2019-05-21T01:26:31.571Z,81.60
2019-05-21T01:27:31.586Z,82.00
2019-05-21T01:28:31.550Z,79.20
2019-05-21T01:29:31.541Z,76.70
2019-05-21T01:30:31.523Z,75.70
2019-05-21T01:31:31.514Z,77.80
2019-05-21T01:32:31.536Z,81.50
2019-05-21T01:33:31.491Z,83.00
2019-05-21T01:34:31.661Z,85.20
2019-05-21T01:35:31.470Z,75.70
2019-05-21T01:36:31.460Z,79.20
2019-05-21T01:37:31.643Z,82.60
2019-05-21T01:38:31.435Z,83.40
2019-05-21T01:39:31.426Z,85.30
2019-05-21T01:40:31.415Z,80.20
2019-05-21T01:41:31.403Z,87.70
2019-05-21T01:42:31.401Z,78.60
2019-05-21T01:43:31.417Z,84.50
2019-05-21T01:44:31.373Z,83.70
2019-05-21T01:45:31.367Z,85.40
2019-05-21T01:46:31.351Z,85.00
2019-05-21T01:47:31.340Z,78.80
2019-05-21T01:48:31.359Z,82.10
2019-05-21T01:49:31.321Z,78.50
2019-05-21T01:50:31.316Z,81.30
2019-05-21T01:51:31.298Z,78.50
2019-05-21T01:52:31.287Z,83.10
2019-05-21T01:53:31.304Z,78.40
2019-05-21T01:54:31.263Z,80.30
2019-05-21T01:55:31.253Z,74.50
2019-05-21T01:56:31.252Z,79.80
2019-05-21T01:57:31.241Z,79.40
2019-05-21T01:58:31.246Z,77.40
2019-05-21T01:59:31.218Z,78.00
2019-05-21T02:00:31.195Z,73.00
2019-05-21T02:01:31.186Z,62.70
2019-05-21T02:02:31.174Z,75.50
2019-05-21T02:03:31.218Z,2.10
2019-05-21T02:04:31.162Z,81.10
2019-05-21T02:05:33.405Z,80.10
2019-05-21T02:06:31.137Z,78.60
2019-05-21T02:07:31.157Z,76.70
2019-05-21T02:08:31.138Z,75.50
2019-05-21T02:09:31.131Z,81.10
2019-05-21T02:10:31.129Z,76.80
2019-05-21T02:11:31.121Z,79.00
2019-05-21T02:12:31.067Z,74.70
2019-05-21T02:13:31.083Z,75.00
2019-05-21T02:14:31.049Z,78.60
2019-05-21T02:15:31.034Z,42.80
2019-05-21T02:16:31.028Z,1.10
2019-05-21T02:17:31.021Z,0.40
2019-05-21T02:18:31.041Z,0.20
2019-05-21T02:19:30.987Z,0.00
2019-05-21T02:20:30.979Z,0.00
2019-05-21T02:21:30.966Z,0.00
2019-05-21T02:22:30.955Z,0.00
2019-05-21T02:23:30.976Z,0.00
2019-05-21T02:24:30.936Z,0.00
2019-05-21T02:25:30.935Z,0.00
2019-05-21T02:26:30.917Z,0.00
2019-05-21T02:27:30.919Z,0.00
2019-05-21T02:28:30.918Z,0.00
2019-05-21T02:29:30.888Z,0.00
2019-05-21T02:30:30.877Z,0.00
2019-05-21T02:31:30.869Z,0.00
2019-05-21T02:32:30.867Z,0.00
2019-05-21T02:33:30.877Z,0.00
2019-05-21T02:34:30.849Z,0.00
2019-05-21T02:35:30.815Z,0.00
2019-05-21T02:36:30.820Z,0.00
2019-05-21T02:37:30.805Z,0.00
2019-05-21T02:38:30.818Z,0.00
2019-05-21T02:39:30.780Z,0.00
2019-05-21T02:40:30.765Z,0.00
2019-05-21T02:41:30.766Z,0.00
2019-05-21T02:42:30.743Z,0.00
2019-05-21T02:43:30.759Z,0.00
2019-05-21T02:44:30.818Z,0.00
2019-05-21T02:45:30.710Z,0.00
2019-05-21T02:46:30.701Z,0.00
2019-05-21T02:47:30.689Z,0.00
2019-05-21T02:48:30.704Z,0.00
2019-05-21T02:49:30.667Z,0.00
2019-05-21T02:50:30.657Z,0.00
2019-05-21T02:51:30.649Z,0.00
2019-05-21T02:52:30.634Z,0.00
2019-05-21T02:53:34.289Z,0.00
2019-05-21T02:54:40.749Z,0.00
2019-05-21T02:55:31.602Z,0.00
2019-05-21T02:56:30.600Z,0.00
2019-05-21T02:57:30.589Z,0.00
2019-05-21T02:58:30.598Z,0.00
2019-05-21T02:59:30.558Z,0.00
2019-05-21T03:00:30.559Z,0.00
2019-05-21T03:01:30.536Z,63.20
2019-05-21T03:02:30.528Z,69.30
2019-05-21T03:03:30.545Z,73.40
2019-05-21T03:04:30.504Z,67.50
2019-05-21T03:05:30.494Z,66.60
2019-05-21T03:06:30.482Z,68.20
2019-05-21T03:07:30.474Z,68.90
2019-05-21T03:08:30.485Z,70.50
2019-05-21T03:09:30.492Z,70.50
2019-05-21T03:10:30.439Z,73.70
2019-05-21T03:11:30.436Z,72.90
2019-05-21T03:12:30.416Z,1.00
2019-05-21T03:13:30.431Z,1.00
2019-05-21T03:14:30.404Z,0.30
2019-05-21T03:15:30.387Z,0.20
2019-05-21T03:16:30.375Z,0.20
2019-05-21T03:17:30.366Z,0.00
2019-05-21T03:18:30.391Z,0.00
2019-05-21T03:19:30.345Z,0.10
2019-05-21T03:20:30.329Z,0.00
2019-05-21T03:21:30.323Z,0.00
2019-05-21T03:22:30.366Z,0.00
2019-05-21T03:23:30.324Z,0.00
2019-05-21T03:24:30.285Z,0.00
2019-05-21T03:25:30.273Z,0.00
2019-05-21T03:26:30.267Z,0.00
2019-05-21T03:27:30.252Z,0.00
2019-05-21T03:28:30.268Z,0.00
2019-05-21T03:29:30.236Z,0.00
2019-05-21T03:30:30.227Z,0.00
2019-05-21T03:31:30.230Z,0.00
2019-05-21T03:32:30.196Z,0.00
2019-05-21T03:33:30.216Z,0.00
2019-05-21T03:34:30.194Z,0.00
2019-05-21T03:35:30.169Z,0.00
2019-05-21T03:36:33.916Z,0.00
2019-05-21T03:37:30.151Z,0.00
2019-05-21T03:38:30.170Z,0.00
2019-05-21T03:39:30.125Z,0.00
2019-05-21T03:40:30.115Z,0.00
2019-05-21T03:41:30.110Z,0.00
2019-05-21T03:42:30.094Z,0.00
2019-05-21T03:43:30.119Z,0.00
2019-05-21T03:44:30.067Z,0.00
2019-05-21T03:45:30.056Z,0.00
2019-05-21T03:46:30.063Z,0.10
2019-05-21T03:47:30.036Z,0.00
2019-05-21T03:48:30.054Z,0.00
2019-05-21T03:49:30.023Z,0.00
2019-05-21T03:50:30.005Z,0.00
2019-05-21T03:51:29.992Z,0.00
2019-05-21T03:52:29.983Z,0.00
2019-05-21T03:53:29.999Z,0.00
2019-05-21T03:54:29.961Z,0.00
2019-05-21T03:55:29.948Z,0.00
2019-05-21T03:56:29.939Z,0.00
2019-05-21T03:57:29.928Z,0.00
2019-05-21T03:58:29.941Z,0.00
2019-05-21T03:59:29.904Z,0.00
2019-05-21T04:00:29.895Z,0.00
2019-05-21T04:01:29.882Z,0.00
2019-05-21T04:02:29.871Z,0.00
2019-05-21T04:03:29.891Z,0.00
2019-05-21T04:04:29.853Z,0.00
2019-05-21T04:05:29.845Z,0.00
2019-05-21T04:06:29.832Z,0.00
2019-05-21T04:07:29.819Z,0.00
2019-05-21T04:08:29.844Z,0.10
2019-05-21T04:09:29.802Z,0.00
2019-05-21T04:10:29.794Z,0.00
2019-05-21T04:11:29.778Z,0.00
2019-05-21T04:12:29.765Z,0.00
2019-05-21T04:13:29.778Z,0.00
2019-05-21T04:14:29.749Z,0.00
2019-05-21T04:15:29.733Z,0.00
2019-05-21T04:16:29.723Z,0.00
2019-05-21T04:17:34.385Z,0.00
2019-05-21T04:18:30.724Z,0.00
2019-05-21T04:19:29.699Z,0.00
2019-05-21T04:20:29.687Z,0.00
2019-05-21T04:21:29.668Z,0.00
2019-05-21T04:22:29.658Z,0.00
2019-05-21T04:23:29.651Z,0.00
2019-05-21T04:24:29.663Z,0.00
2019-05-21T04:25:29.626Z,0.00
2019-05-21T04:26:29.624Z,0.10
2019-05-21T04:27:29.603Z,0.00
2019-05-21T04:28:29.596Z,0.00
2019-05-21T04:29:29.604Z,0.00
2019-05-21T04:30:29.570Z,0.00
2019-05-21T04:31:29.564Z,0.00
2019-05-21T04:32:29.551Z,0.00
2019-05-21T04:33:29.542Z,0.00
2019-05-21T04:34:29.552Z,0.00
2019-05-21T04:35:29.522Z,0.00
2019-05-21T04:36:29.505Z,0.00
2019-05-21T04:37:29.492Z,0.00
2019-05-21T04:38:29.487Z,0.00
2019-05-21T04:39:29.540Z,0.00
2019-05-21T04:40:29.464Z,0.00
2019-05-21T04:41:29.455Z,0.00
2019-05-21T04:42:29.446Z,0.00
2019-05-21T04:43:29.433Z,0.00
2019-05-21T04:44:29.458Z,0.00
2019-05-21T04:45:29.407Z,0.00
2019-05-21T04:46:29.405Z,0.00
2019-05-21T04:47:29.387Z,0.00
2019-05-21T04:48:29.402Z,0.00
2019-05-21T04:49:29.398Z,0.00
2019-05-21T04:50:29.355Z,0.00
2019-05-21T04:51:29.346Z,0.00
2019-05-21T04:52:29.339Z,0.00
2019-05-21T04:53:29.330Z,0.00
2019-05-21T04:54:29.342Z,0.00
2019-05-21T04:55:29.309Z,0.00
2019-05-21T04:56:29.292Z,0.00
2019-05-21T04:57:29.279Z,0.00
2019-05-21T04:58:29.273Z,0.00
2019-05-21T04:59:29.292Z,0.00
2019-05-21T05:00:29.252Z,0.00
2019-05-21T05:01:29.268Z,0.00
2019-05-21T05:02:29.232Z,0.00
2019-05-21T05:03:29.219Z,0.00
2019-05-21T05:04:29.235Z,0.00
2019-05-21T05:05:29.200Z,0.00
2019-05-21T05:06:29.187Z,0.00
2019-05-21T05:07:29.183Z,0.00
2019-05-21T05:08:29.163Z,0.10
2019-05-21T05:09:29.189Z,0.00
2019-05-21T05:10:29.205Z,0.00
2019-05-21T05:11:29.132Z,0.00
2019-05-21T05:12:29.126Z,0.00
2019-05-21T05:13:29.125Z,0.00
2019-05-21T05:14:29.133Z,0.10
2019-05-21T05:15:29.097Z,0.00
2019-05-21T05:16:29.081Z,0.10
2019-05-21T05:17:29.090Z,0.00
2019-05-21T05:18:29.058Z,0.00
2019-05-21T05:19:29.090Z,0.00
2019-05-21T05:20:29.043Z,0.00
2019-05-21T05:21:29.025Z,0.00
2019-05-21T05:22:29.014Z,0.00
2019-05-21T05:23:29.002Z,0.00
2019-05-21T05:24:29.018Z,0.00
2019-05-21T05:25:28.978Z,0.00
2019-05-21T05:26:28.974Z,0.00
2019-05-21T05:27:28.958Z,0.00
2019-05-21T05:28:28.952Z,0.00
2019-05-21T05:29:28.964Z,0.00
2019-05-21T05:30:28.924Z,0.00
2019-05-21T05:31:28.915Z,0.00
2019-05-21T05:32:28.909Z,0.00
2019-05-21T05:33:28.897Z,0.00
2019-05-21T05:34:28.909Z,0.00
2019-05-21T05:35:28.870Z,0.00
2019-05-21T05:36:28.861Z,0.00
2019-05-21T05:37:42.764Z,0.00
2019-05-21T05:38:29.838Z,0.00
2019-05-21T05:39:28.859Z,0.00
2019-05-21T05:40:28.815Z,0.00
2019-05-21T05:41:28.809Z,0.00
2019-05-21T05:42:28.799Z,0.00
2019-05-21T05:43:28.784Z,0.00
2019-05-21T05:44:28.801Z,0.00
2019-05-21T05:45:28.766Z,0.00
2019-05-21T05:46:28.752Z,0.00
2019-05-21T05:47:28.740Z,0.00
2019-05-21T05:48:28.726Z,0.00
2019-05-21T05:49:28.749Z,0.00
2019-05-21T05:50:28.710Z,0.00
2019-05-21T05:51:28.698Z,0.00
2019-05-21T05:52:28.692Z,0.00
2019-05-21T05:53:28.677Z,0.00
2019-05-21T05:54:28.693Z,0.00
2019-05-21T05:55:28.654Z,0.00
2019-05-21T05:56:28.652Z,0.00
2019-05-21T05:57:28.635Z,0.00
2019-05-21T05:58:28.623Z,0.00
2019-05-21T05:59:28.647Z,0.00
2019-05-21T06:00:28.605Z,0.00
2019-05-21T06:01:28.590Z,0.00
2019-05-21T06:02:28.579Z,0.00
2019-05-21T06:03:28.567Z,0.00
2019-05-21T06:04:30.489Z,0.00
2019-05-21T06:05:28.571Z,0.20
2019-05-21T06:06:28.537Z,0.00
2019-05-21T06:07:28.526Z,0.00
2019-05-21T06:08:28.529Z,0.00
2019-05-21T06:09:28.503Z,0.00
2019-05-21T06:10:28.521Z,0.10
2019-05-21T06:11:28.482Z,0.00
2019-05-21T06:12:28.474Z,0.00
2019-05-21T06:13:28.461Z,0.00
2019-05-21T06:14:28.448Z,0.00
2019-05-21T06:15:28.467Z,0.00
2019-05-21T06:16:28.431Z,0.00
2019-05-21T06:17:28.415Z,0.00
2019-05-21T06:18:28.405Z,0.00
2019-05-21T06:19:28.386Z,0.00
2019-05-21T06:20:28.415Z,0.00
2019-05-21T06:21:28.376Z,0.00
2019-05-21T06:22:28.371Z,0.00
2019-05-21T06:23:28.351Z,0.10
2019-05-21T06:24:28.347Z,0.00
2019-05-21T06:25:28.357Z,0.00
2019-05-21T06:26:28.323Z,0.00
2019-05-21T06:27:28.312Z,0.00
2019-05-21T06:28:28.300Z,0.00
2019-05-21T06:29:28.291Z,0.00
2019-05-21T06:30:28.303Z,0.00
2019-05-21T06:31:28.268Z,0.00
2019-05-21T06:32:28.261Z,0.00
2019-05-21T06:33:28.253Z,0.00
2019-05-21T06:34:28.258Z,0.00
2019-05-21T06:35:28.258Z,0.00
2019-05-21T06:36:28.220Z,0.10
2019-05-21T06:37:28.220Z,0.00
2019-05-21T06:38:28.192Z,0.00
2019-05-21T06:39:28.184Z,0.00
2019-05-21T06:40:28.196Z,0.00
2019-05-21T06:41:28.159Z,0.10
2019-05-21T06:42:28.153Z,0.00
2019-05-21T06:43:28.140Z,0.00
2019-05-21T06:44:28.129Z,0.00
2019-05-21T06:45:28.140Z,0.00
2019-05-21T06:46:28.128Z,0.00
2019-05-21T06:47:28.095Z,0.00
2019-05-21T06:48:28.083Z,0.00
2019-05-21T06:49:28.075Z,0.00
2019-05-21T06:50:28.086Z,0.00
2019-05-21T06:51:28.051Z,0.00
2019-05-21T06:52:28.049Z,0.10
2019-05-21T06:53:28.092Z,0.00
2019-05-21T06:54:28.014Z,0.00
2019-05-21T06:55:28.041Z,0.00
2019-05-21T06:56:28.000Z,0.00
2019-05-21T06:57:27.980Z,0.00
2019-05-21T06:58:27.974Z,0.10
2019-05-21T06:59:27.958Z,0.00
2019-05-21T07:00:27.975Z,0.10
2019-05-21T07:01:29.517Z,0.00
2019-05-21T07:02:27.933Z,0.00
2019-05-21T07:03:27.917Z,0.00
2019-05-21T07:04:27.903Z,0.00
2019-05-21T07:05:27.915Z,0.00
2019-05-21T07:06:27.886Z,0.00
2019-05-21T07:07:27.873Z,0.00
2019-05-21T07:08:34.649Z,0.10
2019-05-21T07:09:28.849Z,0.00
2019-05-21T07:10:27.872Z,0.00
2019-05-21T07:11:27.831Z,0.00
2019-05-21T07:12:27.814Z,0.00
2019-05-21T07:13:31.007Z,0.00
2019-05-21T07:14:27.795Z,0.00
2019-05-21T07:15:27.818Z,0.00
2019-05-21T07:16:27.778Z,0.00
2019-05-21T07:17:27.762Z,0.00
2019-05-21T07:18:27.754Z,0.00
2019-05-21T07:19:27.739Z,0.00
2019-05-21T07:20:27.755Z,0.00
2019-05-21T07:21:27.718Z,0.00
2019-05-21T07:22:27.711Z,0.00
2019-05-21T07:23:27.698Z,0.10
2019-05-21T07:24:28.475Z,0.00
2019-05-21T07:25:27.702Z,0.00
2019-05-21T07:26:27.664Z,0.20
2019-05-21T07:27:27.660Z,0.00
2019-05-21T07:28:27.651Z,0.00
2019-05-21T07:29:27.631Z,0.00
2019-05-21T07:30:27.654Z,0.00
2019-05-21T07:31:27.616Z,0.00
2019-05-21T07:32:27.599Z,0.00
2019-05-21T07:33:27.587Z,0.00
2019-05-21T07:34:27.585Z,0.00
2019-05-21T07:35:27.594Z,0.00
2019-05-21T07:36:27.563Z,0.00
2019-05-21T07:37:27.549Z,0.00
2019-05-21T07:38:27.568Z,0.00
2019-05-21T07:39:27.523Z,0.00
2019-05-21T07:40:27.540Z,0.00
2019-05-21T07:41:27.512Z,0.00
2019-05-21T07:42:27.493Z,0.00
2019-05-21T07:43:27.483Z,0.00
2019-05-21T07:44:27.470Z,0.00
2019-05-21T07:45:27.489Z,0.00
2019-05-21T07:46:27.453Z,0.10
2019-05-21T07:47:27.448Z,0.00
2019-05-21T07:48:27.427Z,0.00
2019-05-21T07:49:27.419Z,0.00
2019-05-21T07:50:27.449Z,0.00
2019-05-21T07:51:27.399Z,0.00
2019-05-21T07:52:27.384Z,0.00
2019-05-21T07:53:27.372Z,0.00
2019-05-21T07:54:28.141Z,0.00
2019-05-21T07:55:27.380Z,0.00
2019-05-21T07:56:27.341Z,0.00
2019-05-21T07:57:27.355Z,0.00
2019-05-21T07:58:27.337Z,0.00
2019-05-21T07:59:27.321Z,0.00
2019-05-21T08:00:27.354Z,0.00
2019-05-21T08:01:27.289Z,0.00
2019-05-21T08:02:27.282Z,0.00
2019-05-21T08:03:27.264Z,0.00
2019-05-21T08:04:27.253Z,0.00
2019-05-21T08:05:27.265Z,0.00
2019-05-21T08:06:27.229Z,0.00
2019-05-21T08:07:27.221Z,0.00
2019-05-21T08:08:27.216Z,0.00
2019-05-21T08:09:27.766Z,0.00
2019-05-21T08:10:27.260Z,0.00
2019-05-21T08:11:27.176Z,0.00
2019-05-21T08:12:38.192Z,0.00
2019-05-21T08:13:28.153Z,0.00
2019-05-21T08:14:27.142Z,0.00
2019-05-21T08:15:27.160Z,0.00
2019-05-21T08:16:27.121Z,0.00
2019-05-21T08:17:27.129Z,0.00
2019-05-21T08:18:27.098Z,0.00
2019-05-21T08:19:30.916Z,0.00
2019-05-21T08:20:27.104Z,0.00
2019-05-21T08:21:27.064Z,0.00
2019-05-21T08:22:27.059Z,0.00
2019-05-21T08:23:27.055Z,0.00
2019-05-21T08:24:27.031Z,0.00
2019-05-21T08:25:27.049Z,0.00
2019-05-21T08:26:27.014Z,0.00
2019-05-21T08:27:26.999Z,0.00
2019-05-21T08:28:26.988Z,0.00
2019-05-21T08:29:27.004Z,0.00
2019-05-21T08:30:26.995Z,0.00
2019-05-21T08:31:26.955Z,0.00
2019-05-21T08:32:26.944Z,0.00
2019-05-21T08:33:26.937Z,0.00
2019-05-21T08:34:26.929Z,0.00
2019-05-21T08:35:26.950Z,0.00
2019-05-21T08:36:26.903Z,0.00
2019-05-21T08:37:26.898Z,0.00
2019-05-21T08:38:26.876Z,0.00
2019-05-21T08:39:29.220Z,0.00
2019-05-21T08:40:26.860Z,0.00
2019-05-21T08:41:26.876Z,0.00
2019-05-21T08:42:26.847Z,0.00
2019-05-21T08:43:26.822Z,0.00
2019-05-21T08:44:26.816Z,0.00
2019-05-21T08:45:26.799Z,0.00
2019-05-21T08:46:26.816Z,0.00
2019-05-21T08:47:26.811Z,0.00
2019-05-21T08:48:26.776Z,0.00
2019-05-21T08:49:26.754Z,0.00
2019-05-21T08:50:26.747Z,0.00
2019-05-21T08:51:26.794Z,0.00
2019-05-21T08:52:26.756Z,0.00
2019-05-21T08:53:26.714Z,0.00
2019-05-21T08:54:26.701Z,0.00
2019-05-21T08:55:26.687Z,0.00
2019-05-21T08:56:26.706Z,0.10
2019-05-21T08:57:26.669Z,0.00
2019-05-21T08:58:26.658Z,0.00
2019-05-21T08:59:26.656Z,0.00
2019-05-21T09:00:26.639Z,0.00
2019-05-21T09:01:26.652Z,0.00
2019-05-21T09:02:26.622Z,0.00
2019-05-21T09:03:26.602Z,0.00
2019-05-21T09:04:45.035Z,0.00
2019-05-21T09:05:27.580Z,0.00
2019-05-21T09:06:26.594Z,0.00
2019-05-21T09:07:26.581Z,0.00
2019-05-21T09:08:26.549Z,0.00
2019-05-21T09:09:26.537Z,0.00
2019-05-21T09:10:26.524Z,0.00
2019-05-21T09:11:26.546Z,0.00
2019-05-21T09:12:26.503Z,0.00
2019-05-21T09:13:26.499Z,0.00
2019-05-21T09:14:26.480Z,0.00
2019-05-21T09:15:26.469Z,0.00
2019-05-21T09:16:26.486Z,0.00
2019-05-21T09:17:26.455Z,0.00
2019-05-21T09:18:26.435Z,0.00
2019-05-21T09:19:26.429Z,0.00
2019-05-21T09:20:26.419Z,0.00
2019-05-21T09:21:26.427Z,0.00
2019-05-21T09:22:26.397Z,0.00
2019-05-21T09:23:26.385Z,0.00
2019-05-21T09:24:26.374Z,0.00
2019-05-21T09:25:26.366Z,0.00
2019-05-21T09:26:26.380Z,0.00
2019-05-21T09:27:26.338Z,0.00
2019-05-21T09:28:26.329Z,0.00
2019-05-21T09:29:26.320Z,0.00
2019-05-21T09:30:26.306Z,0.00
2019-05-21T09:31:26.324Z,0.00
2019-05-21T09:32:26.289Z,0.00
2019-05-21T09:33:26.272Z,0.00
2019-05-21T09:34:26.277Z,0.00
2019-05-21T09:35:26.255Z,0.00
2019-05-21T09:36:26.270Z,0.00
2019-05-21T09:37:26.228Z,0.00
2019-05-21T09:38:26.224Z,0.00
2019-05-21T09:39:26.208Z,0.00
2019-05-21T09:40:26.195Z,0.00
2019-05-21T09:41:26.216Z,0.00
2019-05-21T09:42:26.179Z,0.00
2019-05-21T09:43:26.165Z,0.00
2019-05-21T09:44:26.155Z,0.00
2019-05-21T09:45:26.140Z,0.00
2019-05-21T09:46:26.158Z,0.00
2019-05-21T09:47:26.115Z,0.00
2019-05-21T09:48:26.129Z,0.00
2019-05-21T09:49:26.113Z,0.00
2019-05-21T09:50:26.092Z,0.00
2019-05-21T09:51:26.103Z,0.00
2019-05-21T09:52:26.092Z,0.00
2019-05-21T09:53:26.063Z,0.00
2019-05-21T09:54:26.044Z,0.00
2019-05-21T09:55:26.031Z,0.00
2019-05-21T09:56:26.047Z,0.00
2019-05-21T09:57:26.013Z,0.00
2019-05-21T09:58:25.999Z,0.00
2019-05-21T09:59:25.993Z,0.00
2019-05-21T10:00:25.976Z,0.00
2019-05-21T10:01:25.995Z,0.00
2019-05-21T10:02:25.959Z,0.00
2019-05-21T10:03:25.944Z,0.00
2019-05-21T10:04:25.940Z,0.00
2019-05-21T10:05:25.925Z,0.00
2019-05-21T10:06:25.944Z,0.00
2019-05-21T10:07:38.957Z,0.00
2019-05-21T10:08:26.897Z,0.00
2019-05-21T10:09:25.877Z,0.00
2019-05-21T10:10:25.863Z,0.00
2019-05-21T10:11:25.901Z,0.00
2019-05-21T10:12:25.844Z,0.00
2019-05-21T10:13:25.833Z,0.00
2019-05-21T10:14:25.822Z,0.00
2019-05-21T10:15:25.815Z,0.00
2019-05-21T10:16:25.831Z,0.00
2019-05-21T10:17:25.796Z,0.00
2019-05-21T10:18:25.775Z,0.00
2019-05-21T10:19:25.775Z,0.00
2019-05-21T10:20:25.755Z,0.00
2019-05-21T10:21:25.862Z,0.00
2019-05-21T10:22:25.739Z,0.00
2019-05-21T10:23:25.724Z,0.00
2019-05-21T10:24:25.719Z,0.00
2019-05-21T10:25:25.699Z,0.00
2019-05-21T10:26:25.733Z,0.00
2019-05-21T10:27:25.680Z,0.00
2019-05-21T10:28:25.671Z,0.00
2019-05-21T10:29:25.659Z,0.00
2019-05-21T10:30:25.657Z,0.00
2019-05-21T10:31:25.663Z,0.00
2019-05-21T10:32:25.623Z,0.00
2019-05-21T10:33:25.619Z,0.00
2019-05-21T10:34:25.637Z,0.00
2019-05-21T10:35:25.590Z,0.00
2019-05-21T10:36:25.609Z,0.00
2019-05-21T10:37:25.567Z,0.00
2019-05-21T10:38:25.560Z,0.00
2019-05-21T10:39:25.558Z,0.00
2019-05-21T10:40:25.548Z,0.00
2019-05-21T10:41:25.557Z,0.00
2019-05-21T10:42:25.521Z,0.00
2019-05-21T10:43:25.508Z,0.00
2019-05-21T10:44:25.497Z,0.00
2019-05-21T10:45:25.501Z,0.00
2019-05-21T10:46:25.625Z,0.00
2019-05-21T10:47:25.519Z,0.00
2019-05-21T10:48:25.460Z,0.00
2019-05-21T10:49:25.447Z,0.00
2019-05-21T10:50:25.440Z,0.00
2019-05-21T10:51:25.433Z,0.00
2019-05-21T10:52:25.439Z,0.00
2019-05-21T10:53:25.411Z,0.00
2019-05-21T10:54:25.400Z,0.00
2019-05-21T10:55:25.385Z,0.00
2019-05-21T10:56:25.375Z,0.00
2019-05-21T10:57:25.403Z,0.00
2019-05-21T10:58:25.357Z,0.00
2019-05-21T10:59:25.343Z,0.00
2019-05-21T11:00:25.338Z,0.00
2019-05-21T11:01:25.312Z,0.00
2019-05-21T11:02:25.331Z,0.00
2019-05-21T11:03:25.295Z,0.00
2019-05-21T11:04:25.292Z,0.00
2019-05-21T11:05:28.709Z,0.00
2019-05-21T11:06:25.280Z,0.00
2019-05-21T11:07:25.283Z,0.00
2019-05-21T11:08:25.662Z,0.00
2019-05-21T11:09:25.241Z,0.00
2019-05-21T11:10:25.223Z,0.00
2019-05-21T11:11:25.224Z,0.00
2019-05-21T11:12:25.224Z,0.00
2019-05-21T11:13:25.184Z,0.00
2019-05-21T11:14:25.178Z,0.00
2019-05-21T11:15:25.182Z,0.00
2019-05-21T11:16:25.154Z,0.00
2019-05-21T11:17:25.167Z,0.00
2019-05-21T11:18:25.132Z,0.00
2019-05-21T11:19:25.120Z,0.00
2019-05-21T11:20:25.112Z,0.00
2019-05-21T11:21:25.095Z,0.00
2019-05-21T11:22:25.112Z,0.00
2019-05-21T11:23:25.076Z,0.00
2019-05-21T11:24:25.076Z,0.00
2019-05-21T11:25:25.060Z,0.00
2019-05-21T11:26:25.055Z,0.00
2019-05-21T11:27:25.058Z,0.00
2019-05-21T11:28:25.021Z,0.00
2019-05-21T11:29:25.011Z,0.00
2019-05-21T11:30:24.999Z,0.00
2019-05-21T11:31:24.989Z,0.00
2019-05-21T11:32:25.011Z,0.00
2019-05-21T11:33:24.966Z,0.00
2019-05-21T11:34:24.969Z,0.00
2019-05-21T11:35:24.945Z,0.00
2019-05-21T11:36:24.936Z,0.00
2019-05-21T11:37:24.951Z,0.00
2019-05-21T11:38:39.054Z,0.00
2019-05-21T11:39:25.904Z,0.00
2019-05-21T11:40:24.922Z,0.00
2019-05-21T11:41:24.880Z,0.00
2019-05-21T11:42:24.903Z,0.00
2019-05-21T11:43:24.860Z,0.00
2019-05-21T11:44:24.851Z,0.00
2019-05-21T11:45:32.449Z,0.00
2019-05-21T11:46:25.824Z,0.00
2019-05-21T11:47:24.846Z,0.00
2019-05-21T11:48:24.812Z,0.00
2019-05-21T11:49:24.791Z,0.00
2019-05-21T11:50:24.786Z,0.00
2019-05-21T11:51:24.775Z,0.00
2019-05-21T11:52:24.794Z,0.00
2019-05-21T11:53:24.751Z,0.00
2019-05-21T11:54:24.739Z,0.00
2019-05-21T11:55:24.734Z,0.00
2019-05-21T11:56:24.724Z,0.00
2019-05-21T11:57:24.736Z,0.00
2019-05-21T11:58:24.701Z,0.00
2019-05-21T11:59:24.689Z,0.00
2019-05-21T12:00:24.688Z,0.00
2019-05-21T12:01:24.669Z,0.00
2019-05-21T12:02:24.689Z,0.00
2019-05-21T12:03:24.648Z,0.00
2019-05-21T12:04:24.644Z,0.00
2019-05-21T12:05:24.642Z,0.00
2019-05-21T12:06:24.612Z,0.00
2019-05-21T12:07:24.629Z,0.00
2019-05-21T12:08:24.591Z,0.00
2019-05-21T12:09:24.587Z,0.00
2019-05-21T12:10:24.572Z,0.00
2019-05-21T12:11:24.560Z,0.00
2019-05-21T12:12:24.579Z,0.00
2019-05-21T12:13:24.540Z,0.00
2019-05-21T12:14:24.529Z,0.00
2019-05-21T12:15:24.525Z,0.00
2019-05-21T12:16:24.511Z,0.00
2019-05-21T12:17:24.522Z,0.00
2019-05-21T12:18:24.492Z,0.00
2019-05-21T12:19:24.481Z,0.00
2019-05-21T12:20:36.220Z,0.00
2019-05-21T12:21:25.458Z,0.00
2019-05-21T12:22:24.476Z,0.00
2019-05-21T12:23:24.498Z,0.00
2019-05-21T12:24:27.425Z,0.00
2019-05-21T12:25:24.571Z,0.00
2019-05-21T12:26:24.419Z,0.00
2019-05-21T12:27:24.430Z,0.00
2019-05-21T12:28:24.388Z,0.00
2019-05-21T12:29:24.370Z,0.00
2019-05-21T12:30:24.361Z,0.00
2019-05-21T12:31:24.367Z,0.00
2019-05-21T12:32:24.360Z,0.00
2019-05-21T12:33:24.331Z,0.00
2019-05-21T12:34:24.316Z,0.10
2019-05-21T12:35:24.307Z,0.00
2019-05-21T12:36:24.313Z,0.00
2019-05-21T12:37:24.326Z,0.00
2019-05-21T12:38:24.277Z,0.00
2019-05-21T12:39:24.264Z,0.00
2019-05-21T12:40:24.251Z,0.00
2019-05-21T12:41:24.247Z,0.00
2019-05-21T12:42:24.263Z,0.00
2019-05-21T12:43:24.223Z,0.00
2019-05-21T12:44:24.211Z,0.00
2019-05-21T12:45:24.199Z,0.00
2019-05-21T12:46:24.188Z,0.00
2019-05-21T12:47:24.219Z,0.00
2019-05-21T12:48:24.169Z,0.00
2019-05-21T12:49:24.166Z,0.00
2019-05-21T12:50:24.148Z,0.00
2019-05-21T12:51:24.136Z,0.00
2019-05-21T12:52:24.125Z,0.00
2019-05-21T12:53:24.140Z,0.00
2019-05-21T12:54:24.103Z,0.00
2019-05-21T12:55:24.101Z,0.00
2019-05-21T12:56:24.083Z,0.00
2019-05-21T12:57:24.074Z,0.00
2019-05-21T12:58:24.087Z,0.00
2019-05-21T12:59:24.051Z,0.00
2019-05-21T13:00:24.041Z,0.00
2019-05-21T13:01:24.034Z,0.00
2019-05-21T13:02:24.021Z,0.00
2019-05-21T13:03:24.030Z,0.00
2019-05-21T13:04:24.004Z,0.00
2019-05-21T13:05:23.988Z,0.00
2019-05-21T13:06:23.978Z,0.00
2019-05-21T13:07:24.045Z,0.00
2019-05-21T13:08:24.014Z,0.00
2019-05-21T13:09:32.637Z,0.00
2019-05-21T13:10:26.878Z,0.00
2019-05-21T13:11:23.925Z,0.00
2019-05-21T13:12:23.928Z,0.00
2019-05-21T13:13:23.926Z,0.00